createdAt,value
2023-04-18T00:00:24.627Z,10.30
2023-04-18T00:01:27.003Z,10.20
2023-04-18T00:02:30.083Z,10.20
2023-04-18T00:03:32.223Z,10.20
2023-04-18T00:04:35.409Z,10.20
2023-04-18T00:05:37.889Z,10.20
2023-04-18T00:06:41.035Z,10.20
2023-04-18T00:07:44.725Z,10.30
2023-04-18T00:08:47.635Z,10.30
2023-04-18T00:09:49.570Z,10.30
2023-04-18T00:10:52.477Z,10.30
2023-04-18T00:11:54.650Z,10.30
2023-04-18T00:12:58.222Z,10.30
2023-04-18T00:14:00.405Z,10.30
2023-04-18T00:15:04.401Z,10.30
2023-04-18T00:16:08.541Z,10.30
2023-04-18T00:17:13.498Z,10.30
2023-04-18T00:18:17.134Z,10.40
2023-04-18T00:19:20.104Z,10.20
2023-04-18T00:20:22.548Z,10.30
2023-04-18T00:21:26.112Z,10.20
2023-04-18T00:22:28.301Z,10.20
2023-04-18T00:23:34.384Z,10.20
2023-04-18T00:24:36.343Z,10.10
2023-04-18T00:25:39.239Z,10.30
2023-04-18T00:26:41.203Z,10.20
2023-04-18T00:27:44.132Z,10.20
2023-04-18T00:28:46.044Z,10.10
2023-04-18T00:29:49.757Z,10.10
2023-04-18T00:30:51.917Z,10.10
2023-04-18T00:31:55.246Z,10.20
2023-04-18T00:32:57.276Z,10.20
2023-04-18T00:34:00.210Z,10.10
2023-04-18T00:35:02.214Z,10.10
2023-04-18T00:36:06.009Z,10.10
2023-04-18T00:37:08.477Z,10.10
2023-04-18T00:38:11.513Z,10.10
2023-04-18T00:39:14.810Z,10.10
2023-04-18T00:40:17.822Z,10.20
2023-04-18T00:41:20.335Z,10.20
2023-04-18T00:42:25.515Z,10.30
2023-04-18T00:43:28.089Z,10.20
2023-04-18T00:44:31.364Z,10.20
2023-04-18T00:45:33.308Z,10.20
2023-04-18T00:46:36.272Z,10.20
2023-04-18T00:47:38.297Z,10.20
2023-04-18T00:48:41.649Z,10.30
2023-04-18T00:49:43.952Z,10.20
2023-04-18T00:50:47.130Z,10.20
2023-04-18T00:51:49.588Z,10.20
2023-04-18T00:52:53.117Z,10.10
2023-04-18T00:53:55.200Z,10.20
2023-04-18T00:54:59.819Z,10.20
2023-04-18T00:56:02.202Z,10.20
2023-04-18T00:57:05.157Z,10.20
2023-04-18T00:58:07.355Z,10.20
2023-04-18T00:59:11.018Z,10.20
2023-04-18T01:00:15.110Z,10.10
2023-04-18T01:01:18.164Z,10.10
2023-04-18T01:02:20.275Z,10.10
2023-04-18T01:03:25.170Z,10.00
2023-04-18T01:04:27.354Z,10.10
2023-04-18T01:05:30.784Z,10.10
2023-04-18T01:06:33.036Z,10.00
2023-04-18T01:07:40.650Z,10.00
2023-04-18T01:08:43.571Z,10.20
2023-04-18T01:09:46.705Z,10.10
2023-04-18T01:10:50.357Z,10.10
2023-04-18T01:11:53.417Z,10.10
2023-04-18T01:13:11.141Z,10.10
2023-04-18T01:14:14.340Z,10.00
2023-04-18T01:15:16.425Z,10.10
2023-04-18T01:16:19.383Z,10.10
2023-04-18T01:17:23.268Z,10.10
2023-04-18T01:18:26.808Z,10.00
2023-04-18T01:19:28.812Z,10.10
2023-04-18T01:20:32.218Z,10.00
2023-04-18T01:21:36.136Z,10.10
2023-04-18T01:22:39.020Z,10.10
2023-04-18T01:23:41.471Z,10.10
2023-04-18T01:24:45.782Z,10.20
2023-04-18T01:25:49.260Z,10.10
2023-04-18T01:26:52.209Z,10.00
2023-04-18T01:27:54.277Z,10.10
2023-04-18T01:28:57.249Z,10.30
2023-04-18T01:29:59.154Z,10.20
2023-04-18T01:31:02.115Z,10.10
2023-04-18T01:32:04.274Z,10.20
2023-04-18T01:33:07.437Z,10.00
2023-04-18T01:34:09.667Z,10.00
2023-04-18T01:35:12.730Z,9.90
2023-04-18T01:36:14.932Z,9.90
2023-04-18T01:37:17.883Z,9.90
2023-04-18T01:38:19.840Z,9.80
2023-04-18T01:39:22.774Z,9.80
2023-04-18T01:40:26.136Z,9.90
2023-04-18T01:41:32.326Z,9.90
2023-04-18T01:42:34.359Z,9.90
2023-04-18T01:43:37.351Z,9.80
2023-04-18T01:44:39.333Z,9.70
2023-04-18T01:45:42.309Z,9.70
2023-04-18T01:46:44.348Z,9.80
2023-04-18T01:47:47.407Z,9.70
2023-04-18T01:48:49.408Z,9.70
2023-04-18T01:49:52.424Z,9.70
2023-04-18T01:50:54.446Z,9.70
2023-04-18T01:51:57.395Z,9.70
2023-04-18T01:52:59.341Z,9.70
2023-04-18T01:54:02.294Z,9.70
2023-04-18T01:55:06.195Z,9.70
2023-04-18T01:56:11.163Z,9.80
2023-04-18T01:57:13.116Z,9.80
2023-04-18T01:58:16.274Z,9.90
2023-04-18T01:59:18.255Z,9.70
2023-04-18T02:00:22.284Z,9.80
2023-04-18T02:01:24.366Z,9.70
2023-04-18T02:02:27.474Z,9.70
2023-04-18T02:03:29.615Z,9.70
2023-04-18T02:04:32.669Z,9.70
2023-04-18T02:05:36.267Z,9.70
2023-04-18T02:06:39.238Z,9.70
2023-04-18T02:07:42.696Z,9.80
2023-04-18T02:08:45.750Z,9.70
2023-04-18T02:09:47.761Z,9.70
2023-04-18T02:10:50.748Z,9.70
2023-04-18T02:11:55.376Z,9.60
2023-04-18T02:12:58.283Z,9.60
2023-04-18T02:14:00.281Z,9.60
2023-04-18T02:15:03.752Z,9.60
2023-04-18T02:16:06.568Z,9.60
2023-04-18T02:17:09.715Z,9.60
2023-04-18T02:18:12.207Z,9.70
2023-04-18T02:19:15.288Z,9.80
2023-04-18T02:20:17.407Z,9.90
2023-04-18T02:21:21.835Z,9.80
2023-04-18T02:22:24.091Z,9.70
2023-04-18T02:23:27.012Z,9.80
2023-04-18T02:24:28.949Z,9.80
2023-04-18T02:25:32.261Z,9.80
2023-04-18T02:26:34.216Z,9.80
2023-04-18T02:27:38.479Z,9.80
2023-04-18T02:28:40.390Z,9.90
2023-04-18T02:29:43.333Z,9.80
2023-04-18T02:30:45.269Z,9.80
2023-04-18T02:31:48.258Z,9.90
2023-04-18T02:32:52.141Z,9.80
2023-04-18T02:33:55.195Z,9.70
2023-04-18T02:34:58.119Z,9.80
2023-04-18T02:36:01.659Z,9.70
2023-04-18T02:37:04.711Z,9.70
2023-04-18T02:38:07.618Z,9.70
2023-04-18T02:39:09.553Z,9.70
2023-04-18T02:40:13.689Z,9.70
2023-04-18T02:41:19.320Z,9.80
2023-04-18T02:42:22.499Z,9.70
2023-04-18T02:43:25.794Z,9.70
2023-04-18T02:44:28.747Z,9.70
2023-04-18T02:45:30.704Z,9.70
2023-04-18T02:46:33.615Z,9.70
2023-04-18T02:47:47.047Z,9.70
2023-04-18T02:48:54.594Z,9.70
2023-04-18T02:49:56.599Z,9.70
2023-04-18T02:51:04.317Z,9.60
2023-04-18T02:52:06.667Z,9.70
2023-04-18T02:53:09.674Z,9.80
2023-04-18T02:54:11.789Z,9.70
2023-04-18T02:55:15.164Z,9.70
2023-04-18T02:56:17.206Z,9.70
2023-04-18T02:57:20.161Z,9.60
2023-04-18T02:58:22.769Z,9.60
2023-04-18T02:59:27.122Z,9.60
2023-04-18T03:00:29.313Z,9.50
2023-04-18T03:01:32.330Z,9.50
2023-04-18T03:02:34.454Z,9.50
2023-04-18T03:03:37.478Z,9.50
2023-04-18T03:04:39.534Z,9.50
2023-04-18T03:05:42.657Z,9.40
2023-04-18T03:06:44.583Z,9.50
2023-04-18T03:07:47.466Z,9.50
2023-04-18T03:08:49.488Z,9.50
2023-04-18T03:09:52.407Z,9.40
2023-04-18T03:10:56.315Z,9.40
2023-04-18T03:11:59.409Z,9.50
2023-04-18T03:13:02.115Z,7.10
2023-04-18T03:14:05.078Z,9.60
2023-04-18T03:15:09.551Z,9.50
2023-04-18T03:16:13.494Z,9.50
2023-04-18T03:17:15.796Z,9.60
2023-04-18T03:18:18.797Z,9.60
2023-04-18T03:19:21.589Z,9.60
2023-04-18T03:20:24.787Z,9.50
2023-04-18T03:21:26.686Z,9.50
2023-04-18T03:22:29.630Z,9.50
2023-04-18T03:23:31.558Z,9.50
2023-04-18T03:24:34.486Z,9.50
2023-04-18T03:25:36.453Z,9.60
2023-04-18T03:26:39.378Z,9.50
2023-04-18T03:27:42.831Z,9.40
2023-04-18T03:28:45.793Z,9.40
2023-04-18T03:29:47.862Z,9.60
2023-04-18T03:30:52.168Z,9.50
2023-04-18T03:31:54.156Z,9.40
2023-04-18T03:32:57.112Z,9.40
2023-04-18T03:33:59.082Z,9.40
2023-04-18T03:35:02.332Z,9.20
2023-04-18T03:36:06.472Z,9.30
2023-04-18T03:37:08.523Z,9.30
2023-04-18T03:38:11.430Z,9.40
2023-04-18T03:39:13.379Z,9.40
2023-04-18T03:40:16.340Z,9.40
2023-04-18T03:41:18.259Z,9.40
2023-04-18T03:42:21.207Z,9.40
2023-04-18T03:43:23.296Z,9.30
2023-04-18T03:44:26.228Z,9.30
2023-04-18T03:45:28.266Z,9.30
2023-04-18T03:46:32.617Z,9.30
2023-04-18T03:47:34.629Z,9.20
2023-04-18T03:48:37.644Z,9.30
2023-04-18T03:49:40.468Z,9.40
2023-04-18T03:50:43.455Z,9.40
2023-04-18T03:51:47.698Z,9.30
2023-04-18T03:52:50.734Z,9.40
2023-04-18T03:53:52.687Z,9.50
2023-04-18T03:54:55.694Z,9.40
2023-04-18T03:55:57.886Z,9.30
2023-04-18T03:57:00.880Z,9.30
2023-04-18T03:58:03.778Z,9.30
2023-04-18T03:59:05.781Z,9.30
2023-04-18T04:00:10.386Z,9.30
2023-04-18T04:01:12.859Z,9.30
2023-04-18T04:02:17.242Z,9.40
2023-04-18T04:03:19.970Z,9.30
2023-04-18T04:04:22.986Z,9.30
2023-04-18T04:05:25.059Z,9.30
2023-04-18T04:06:28.386Z,9.30
2023-04-18T04:07:30.412Z,9.30
2023-04-18T04:08:33.312Z,9.20
2023-04-18T04:09:35.291Z,9.20
2023-04-18T04:10:38.212Z,9.20
2023-04-18T04:11:40.629Z,9.20
2023-04-18T04:12:43.632Z,9.20
2023-04-18T04:13:45.698Z,9.20
2023-04-18T04:14:48.652Z,9.20
2023-04-18T04:15:51.865Z,9.20
2023-04-18T04:16:54.982Z,9.30
2023-04-18T04:17:58.326Z,9.30
2023-04-18T04:19:01.368Z,9.30
2023-04-18T04:20:03.926Z,9.30
2023-04-18T04:21:07.626Z,9.30
2023-04-18T04:22:09.907Z,9.30
2023-04-18T04:23:12.910Z,9.30
2023-04-18T04:24:15.207Z,9.20
2023-04-18T04:25:18.464Z,9.30
2023-04-18T04:26:23.091Z,9.30
2023-04-18T04:27:26.878Z,9.30
2023-04-18T04:28:28.923Z,9.40
2023-04-18T04:29:32.232Z,9.30
2023-04-18T04:30:34.228Z,9.30
2023-04-18T04:31:37.203Z,9.20
2023-04-18T04:32:39.199Z,9.30
2023-04-18T04:33:44.242Z,9.30
2023-04-18T04:34:46.459Z,9.30
2023-04-18T04:35:49.781Z,9.30
2023-04-18T04:36:51.752Z,9.30
2023-04-18T04:37:54.640Z,9.30
2023-04-18T04:38:56.911Z,9.20
2023-04-18T04:40:00.795Z,9.30
2023-04-18T04:41:02.935Z,9.30
2023-04-18T04:42:05.911Z,9.30
2023-04-18T04:43:12.933Z,9.20
2023-04-18T04:44:17.886Z,9.30
2023-04-18T04:45:21.062Z,9.30
2023-04-18T04:46:23.366Z,9.30
2023-04-18T04:47:26.539Z,9.50
2023-04-18T04:48:29.614Z,9.50
2023-04-18T04:49:33.887Z,9.40
2023-04-18T04:50:37.354Z,9.40
2023-04-18T04:51:40.396Z,9.40
2023-04-18T04:52:42.598Z,9.40
2023-04-18T04:53:45.634Z,9.40
2023-04-18T04:54:48.096Z,9.40
2023-04-18T04:55:51.937Z,8.60
2023-04-18T04:56:53.991Z,8.30
2023-04-18T04:57:57.437Z,8.30
2023-04-18T04:59:00.133Z,8.20
2023-04-18T05:00:04.485Z,8.10
2023-04-18T05:01:10.451Z,8.10
2023-04-18T05:02:13.552Z,8.10
2023-04-18T05:03:15.841Z,8.10
2023-04-18T05:04:19.167Z,8.10
2023-04-18T05:05:22.819Z,8.10
2023-04-18T05:06:25.900Z,8.10
2023-04-18T05:07:27.954Z,8.20
2023-04-18T05:08:30.953Z,8.10
2023-04-18T05:09:32.924Z,8.10
2023-04-18T05:10:37.110Z,8.20
2023-04-18T05:11:39.182Z,8.20
2023-04-18T05:12:42.122Z,8.20
2023-04-18T05:13:45.216Z,8.30
2023-04-18T05:14:47.214Z,8.40
2023-04-18T05:15:51.930Z,8.40
2023-04-18T05:16:55.296Z,8.50
2023-04-18T05:17:58.635Z,8.50
2023-04-18T05:19:00.773Z,8.50
2023-04-18T05:20:03.843Z,8.50
2023-04-18T05:21:07.406Z,8.50
2023-04-18T05:22:10.372Z,8.50
2023-04-18T05:23:12.415Z,8.50
2023-04-18T05:24:15.718Z,8.50
2023-04-18T05:25:18.281Z,8.50
2023-04-18T05:26:21.438Z,8.50
2023-04-18T05:27:23.573Z,8.60
2023-04-18T05:28:27.339Z,8.60
2023-04-18T05:29:29.336Z,8.60
2023-04-18T05:30:32.399Z,8.70
2023-04-18T05:31:34.448Z,8.70
2023-04-18T05:32:38.981Z,8.70
2023-04-18T05:33:41.996Z,8.70
2023-04-18T05:34:44.052Z,8.70
2023-04-18T05:35:46.949Z,8.70
2023-04-18T05:36:50.485Z,8.60
2023-04-18T05:37:53.443Z,8.50
2023-04-18T05:38:55.424Z,8.40
2023-04-18T05:40:00.013Z,8.10
2023-04-18T05:42:06.223Z,7.80
2023-04-18T05:43:09.165Z,7.70
2023-04-18T05:44:11.210Z,7.80
2023-04-18T05:45:14.226Z,7.70
2023-04-18T05:46:16.216Z,7.70
2023-04-18T05:47:19.290Z,7.70
2023-04-18T05:48:22.519Z,7.70
2023-04-18T05:49:25.527Z,7.70
2023-04-18T05:50:28.559Z,7.90
2023-04-18T05:51:31.209Z,8.00
2023-04-18T05:52:35.751Z,8.30
2023-04-18T05:53:38.763Z,8.30
2023-04-18T05:54:42.001Z,8.30
2023-04-18T05:55:46.446Z,8.40
2023-04-18T05:56:48.540Z,8.50
2023-04-18T05:57:51.650Z,8.50
2023-04-18T05:58:53.672Z,8.60
2023-04-18T05:59:56.823Z,8.60
2023-04-18T06:00:59.778Z,8.70
2023-04-18T06:02:01.937Z,8.70
2023-04-18T06:03:05.873Z,8.70
2023-04-18T06:04:09.408Z,8.80
2023-04-18T06:05:14.072Z,8.80
2023-04-18T06:06:17.279Z,8.80
2023-04-18T06:07:19.275Z,8.80
2023-04-18T06:08:23.615Z,8.80
2023-04-18T06:09:25.567Z,8.80
2023-04-18T06:10:29.603Z,8.90
2023-04-18T06:11:33.632Z,8.90
2023-04-18T06:12:36.690Z,8.90
2023-04-18T06:13:39.577Z,8.90
2023-04-18T06:14:41.532Z,8.90
2023-04-18T06:15:44.551Z,8.90
2023-04-18T06:16:46.506Z,8.90
2023-04-18T06:17:49.506Z,8.90
2023-04-18T06:18:52.506Z,8.90
2023-04-18T06:19:54.442Z,8.90
2023-04-18T06:20:57.367Z,8.90
2023-04-18T06:21:59.317Z,8.90
2023-04-18T06:23:02.242Z,8.90
2023-04-18T06:24:06.419Z,8.90
2023-04-18T06:25:10.256Z,8.90
2023-04-18T06:26:13.331Z,9.00
2023-04-18T06:27:24.383Z,9.10
2023-04-18T06:28:31.183Z,9.00
2023-04-18T06:29:33.767Z,9.00
2023-04-18T06:30:37.733Z,9.00
2023-04-18T06:31:39.756Z,8.90
2023-04-18T06:32:43.476Z,8.90
2023-04-18T06:33:46.439Z,8.90
2023-04-18T06:34:49.633Z,8.80
2023-04-18T06:35:52.748Z,8.80
2023-04-18T06:36:54.788Z,8.90
2023-04-18T06:37:58.083Z,8.90
2023-04-18T06:39:00.149Z,8.90
2023-04-18T06:40:05.354Z,8.90
2023-04-18T06:41:08.276Z,8.90
2023-04-18T06:42:10.182Z,8.90
2023-04-18T06:43:13.090Z,8.80
2023-04-18T06:44:15.430Z,8.90
2023-04-18T06:45:18.529Z,9.00
2023-04-18T06:46:21.567Z,9.10
2023-04-18T06:47:24.545Z,9.20
2023-04-18T06:48:26.514Z,9.20
2023-04-18T06:49:29.520Z,9.20
2023-04-18T06:50:31.740Z,9.30
2023-04-18T06:51:34.750Z,9.20
2023-04-18T06:52:40.621Z,9.30
2023-04-18T06:53:46.050Z,9.30
2023-04-18T06:54:48.982Z,9.30
2023-04-18T06:55:52.323Z,9.40
2023-04-18T06:56:55.909Z,9.30
2023-04-18T06:58:00.459Z,9.30
2023-04-18T06:59:03.457Z,9.30
2023-04-18T07:00:06.610Z,9.30
2023-04-18T07:01:09.596Z,9.30
2023-04-18T07:02:11.585Z,9.40
2023-04-18T07:03:16.905Z,9.50
2023-04-18T07:04:19.138Z,9.50
2023-04-18T07:05:22.534Z,9.60
2023-04-18T07:06:26.189Z,9.70
2023-04-18T07:07:29.134Z,9.80
2023-04-18T07:08:32.117Z,9.80
2023-04-18T07:09:34.140Z,9.90
2023-04-18T07:10:37.042Z,9.90
2023-04-18T07:11:40.684Z,9.90
2023-04-18T07:12:43.600Z,10.00
2023-04-18T07:13:45.639Z,9.90
2023-04-18T07:14:48.631Z,9.90
2023-04-18T07:15:51.650Z,10.00
2023-04-18T07:16:53.649Z,10.00
2023-04-18T07:17:56.926Z,10.00
2023-04-18T07:18:58.975Z,10.00
2023-04-18T07:20:01.940Z,9.90
2023-04-18T07:21:07.231Z,10.00
2023-04-18T07:22:09.539Z,10.00
2023-04-18T07:23:12.439Z,10.00
2023-04-18T07:24:15.611Z,10.00
2023-04-18T07:25:19.214Z,10.00
2023-04-18T07:26:22.258Z,10.00
2023-04-18T07:27:26.941Z,10.00
2023-04-18T07:28:29.126Z,10.20
2023-04-18T07:29:32.143Z,10.30
2023-04-18T07:30:35.158Z,10.20
2023-04-18T07:31:38.121Z,10.20
2023-04-18T07:32:41.294Z,10.40
2023-04-18T07:33:44.337Z,10.30
2023-04-18T07:34:48.063Z,10.30
2023-04-18T07:35:52.378Z,10.20
2023-04-18T07:36:54.366Z,10.10
2023-04-18T07:37:57.292Z,10.10
2023-04-18T07:39:00.216Z,10.10
2023-04-18T07:40:04.195Z,10.10
2023-04-18T07:41:07.144Z,10.10
2023-04-18T07:42:11.297Z,10.10
2023-04-18T07:43:15.689Z,10.10
2023-04-18T07:44:18.639Z,10.10
2023-04-18T07:45:20.773Z,10.20
2023-04-18T07:46:23.828Z,10.10
2023-04-18T07:47:30.368Z,10.20
2023-04-18T07:48:32.878Z,10.20
2023-04-18T07:49:35.814Z,10.20
2023-04-18T07:50:38.358Z,10.30
2023-04-18T07:51:41.254Z,10.20
2023-04-18T07:52:47.642Z,10.20
2023-04-18T07:53:50.802Z,10.30
2023-04-18T07:54:53.723Z,10.30
2023-04-18T07:55:56.886Z,10.30
2023-04-18T07:56:59.439Z,10.40
2023-04-18T07:58:02.587Z,10.40
2023-04-18T07:59:05.918Z,10.40
2023-04-18T08:00:10.268Z,10.40
2023-04-18T08:01:14.075Z,10.50
2023-04-18T08:02:17.067Z,10.50
2023-04-18T08:03:19.386Z,10.50
2023-04-18T08:04:22.766Z,10.50
2023-04-18T08:05:25.998Z,10.70
2023-04-18T08:06:28.199Z,10.60
2023-04-18T08:07:31.111Z,10.60
2023-04-18T08:08:34.574Z,10.70
2023-04-18T08:09:37.509Z,10.80
2023-04-18T08:10:39.568Z,10.80
2023-04-18T08:11:43.878Z,10.80
2023-04-18T08:12:45.832Z,10.80
2023-04-18T08:13:48.803Z,10.80
2023-04-18T08:14:52.075Z,10.90
2023-04-18T08:15:55.801Z,10.90
2023-04-18T08:16:58.785Z,10.90
2023-04-18T08:18:02.913Z,10.90
2023-04-18T08:19:06.060Z,10.90
2023-04-18T08:20:08.607Z,11.00
2023-04-18T08:21:11.764Z,11.00
2023-04-18T08:22:14.717Z,11.00
2023-04-18T08:23:17.669Z,11.00
2023-04-18T08:24:20.645Z,11.00
2023-04-18T08:25:22.638Z,11.00
2023-04-18T08:26:25.867Z,11.10
2023-04-18T08:27:27.894Z,11.10
2023-04-18T08:28:31.036Z,11.10
2023-04-18T08:29:34.096Z,11.20
2023-04-18T08:30:37.492Z,11.10
2023-04-18T08:31:40.900Z,11.10
2023-04-18T08:32:44.303Z,11.10
2023-04-18T08:33:47.449Z,11.00
2023-04-18T08:34:49.486Z,11.10
2023-04-18T08:35:52.578Z,11.10
2023-04-18T08:36:54.523Z,11.10
2023-04-18T08:37:57.529Z,11.10
2023-04-18T08:38:59.616Z,11.20
2023-04-18T08:40:03.706Z,11.10
2023-04-18T08:41:06.828Z,11.20
2023-04-18T08:42:12.295Z,11.20
2023-04-18T08:43:16.144Z,11.20
2023-04-18T08:44:19.153Z,11.10
2023-04-18T08:45:22.233Z,11.20
2023-04-18T08:46:26.399Z,11.20
2023-04-18T08:47:30.295Z,11.10
2023-04-18T08:48:32.543Z,11.10
2023-04-18T08:49:36.139Z,11.10
2023-04-18T08:50:39.116Z,11.20
2023-04-18T08:51:43.842Z,11.10
2023-04-18T08:52:48.800Z,11.20
2023-04-18T08:53:51.881Z,11.20
2023-04-18T08:54:54.831Z,11.20
2023-04-18T08:55:58.166Z,11.20
2023-04-18T08:57:06.204Z,11.20
2023-04-18T08:58:09.141Z,11.20
2023-04-18T08:59:12.660Z,11.30
2023-04-18T09:00:17.340Z,11.10
2023-04-18T09:01:21.537Z,11.20
2023-04-18T09:02:39.138Z,11.20
2023-04-18T09:03:44.171Z,11.20
2023-04-18T09:04:52.371Z,11.20
2023-04-18T09:06:08.342Z,11.10
2023-04-18T09:07:13.946Z,11.10
2023-04-18T09:08:24.996Z,11.10
2023-04-18T09:09:28.083Z,11.20
2023-04-18T09:10:33.275Z,11.30
2023-04-18T09:11:35.615Z,11.30
2023-04-18T09:12:49.918Z,11.30
2023-04-18T09:13:55.932Z,11.20
2023-04-18T09:15:11.664Z,11.20
2023-04-18T09:16:14.390Z,11.30
2023-04-18T09:17:34.512Z,11.20
2023-04-18T09:18:39.048Z,11.30
2023-04-18T09:19:48.805Z,11.30
2023-04-18T09:20:51.934Z,11.30
2023-04-18T09:21:59.076Z,11.30
2023-04-18T09:23:03.778Z,11.30
2023-04-18T09:24:21.132Z,11.30
2023-04-18T09:25:29.342Z,11.30
2023-04-18T09:26:34.043Z,11.40
2023-04-18T09:27:37.679Z,11.40
2023-04-18T09:28:40.755Z,11.30
2023-04-18T09:29:46.637Z,11.40
2023-04-18T09:30:52.472Z,11.30
2023-04-18T09:32:02.115Z,11.30
2023-04-18T09:33:07.542Z,11.30
2023-04-18T09:34:25.126Z,11.30
2023-04-18T09:35:28.675Z,11.20
2023-04-18T09:36:32.288Z,11.20
2023-04-18T09:37:36.133Z,11.20
2023-04-18T09:38:42.545Z,11.20
2023-04-18T09:39:46.116Z,11.20
2023-04-18T09:41:07.725Z,11.20
2023-04-18T09:42:10.591Z,11.30
2023-04-18T09:43:20.687Z,11.30
2023-04-18T09:44:22.756Z,11.30
2023-04-18T09:45:26.613Z,11.30
2023-04-18T09:46:29.110Z,11.30
2023-04-18T09:47:35.658Z,11.40
2023-04-18T09:48:39.486Z,11.30
2023-04-18T09:49:42.805Z,11.30
2023-04-18T09:50:47.178Z,11.40
2023-04-18T09:51:51.546Z,11.40
2023-04-18T09:52:56.011Z,11.40
2023-04-18T09:53:58.112Z,11.40
2023-04-18T09:55:02.799Z,11.40
2023-04-18T09:56:07.371Z,11.40
2023-04-18T09:57:13.557Z,11.50
2023-04-18T09:58:17.662Z,11.40
2023-04-18T09:59:34.214Z,11.50
2023-04-18T10:00:38.980Z,11.50
2023-04-18T10:01:41.514Z,11.50
2023-04-18T10:02:57.905Z,11.50
2023-04-18T10:04:01.994Z,11.50
2023-04-18T10:05:09.093Z,11.50
2023-04-18T10:06:15.890Z,11.50
2023-04-18T10:07:19.078Z,11.60
2023-04-18T10:08:22.338Z,11.50
2023-04-18T10:09:24.516Z,11.50
2023-04-18T10:10:27.493Z,11.50
2023-04-18T10:11:30.705Z,11.60
2023-04-18T10:12:34.207Z,11.60
2023-04-18T10:13:39.364Z,11.60
2023-04-18T10:14:43.253Z,11.60
2023-04-18T10:15:47.144Z,11.60
2023-04-18T10:16:50.616Z,11.60
2023-04-18T10:18:04.403Z,11.60
2023-04-18T10:19:27.629Z,11.60
2023-04-18T10:20:33.496Z,11.80
2023-04-18T10:21:35.464Z,11.70
2023-04-18T10:22:38.470Z,11.70
2023-04-18T10:23:42.014Z,11.70
2023-04-18T10:24:53.614Z,11.70
2023-04-18T10:25:56.854Z,11.70
2023-04-18T10:26:58.796Z,11.80
2023-04-18T10:28:02.824Z,11.70
2023-04-18T10:29:04.847Z,11.80
2023-04-18T10:30:09.293Z,11.80
2023-04-18T10:31:12.296Z,11.80
2023-04-18T10:32:14.603Z,11.90
2023-04-18T10:33:35.328Z,11.80
2023-04-18T10:34:46.954Z,11.90
2023-04-18T10:35:58.581Z,11.80
2023-04-18T10:37:07.890Z,11.80
2023-04-18T10:38:17.329Z,11.80
2023-04-18T10:39:25.529Z,11.80
2023-04-18T10:40:33.141Z,11.90
2023-04-18T10:41:38.236Z,11.80
2023-04-18T10:42:58.830Z,11.80
2023-04-18T10:44:22.866Z,11.80
2023-04-18T10:45:26.014Z,11.90
2023-04-18T10:46:32.564Z,11.90
2023-04-18T10:47:36.098Z,11.90
2023-04-18T10:48:39.231Z,11.90
2023-04-18T10:49:55.842Z,12.00
2023-04-18T10:51:16.962Z,11.90
2023-04-18T10:52:19.351Z,11.90
2023-04-18T10:53:22.338Z,12.00
2023-04-18T10:54:32.115Z,11.90
2023-04-18T10:55:36.746Z,11.90
2023-04-18T10:56:39.340Z,12.00
2023-04-18T10:57:43.802Z,11.90
2023-04-18T10:58:51.487Z,12.00
2023-04-18T10:59:54.919Z,12.00
2023-04-18T11:00:58.109Z,12.00
2023-04-18T11:02:10.259Z,12.00
2023-04-18T11:03:13.479Z,12.00
2023-04-18T11:04:16.686Z,12.00
2023-04-18T11:05:22.598Z,11.90
2023-04-18T11:06:27.157Z,12.10
2023-04-18T11:07:34.933Z,12.10
2023-04-18T11:08:37.865Z,12.10
2023-04-18T11:09:40.861Z,12.10
2023-04-18T11:10:44.415Z,12.10
2023-04-18T11:11:46.336Z,12.10
2023-04-18T11:12:49.421Z,12.20
2023-04-18T11:13:56.634Z,12.20
2023-04-18T11:14:59.454Z,12.20
2023-04-18T11:16:02.388Z,12.20
2023-04-18T11:17:20.434Z,12.30
2023-04-18T11:18:23.415Z,12.10
2023-04-18T11:19:25.458Z,12.10
2023-04-18T11:20:29.344Z,12.10
2023-04-18T11:21:33.715Z,12.20
2023-04-18T11:22:45.644Z,12.20
2023-04-18T11:23:48.778Z,12.20
2023-04-18T11:24:50.907Z,12.20
2023-04-18T11:25:56.691Z,12.30
2023-04-18T11:26:59.971Z,12.30
2023-04-18T11:28:04.498Z,12.30
2023-04-18T11:29:06.527Z,12.30
2023-04-18T11:30:10.347Z,12.30
2023-04-18T11:31:16.761Z,12.30
2023-04-18T11:32:18.725Z,12.30
2023-04-18T11:33:21.691Z,12.30
2023-04-18T11:34:28.747Z,12.30
2023-04-18T11:35:31.848Z,12.30
2023-04-18T11:36:38.002Z,12.30
2023-04-18T11:37:41.970Z,12.30
2023-04-18T11:38:44.961Z,12.30
2023-04-18T11:39:47.064Z,12.30
2023-04-18T11:40:50.757Z,12.30
2023-04-18T11:41:53.257Z,12.30
2023-04-18T11:42:56.449Z,12.30
2023-04-18T11:43:58.432Z,12.30
2023-04-18T11:45:01.409Z,12.30
2023-04-18T11:46:03.408Z,12.30
2023-04-18T11:47:06.859Z,12.30
2023-04-18T11:48:09.988Z,12.30
2023-04-18T11:49:28.437Z,12.30
2023-04-18T11:50:37.723Z,12.30
2023-04-18T11:51:44.686Z,12.40
2023-04-18T11:52:51.685Z,12.40
2023-04-18T11:53:53.618Z,12.50
2023-04-18T11:54:57.272Z,12.50
2023-04-18T11:55:59.824Z,12.40
2023-04-18T11:57:02.860Z,12.50
2023-04-18T11:58:06.780Z,12.50
2023-04-18T11:59:09.492Z,12.50
2023-04-18T12:00:13.643Z,12.50
2023-04-18T12:01:17.308Z,12.50
2023-04-18T12:02:21.159Z,12.60
2023-04-18T12:03:24.679Z,12.60
2023-04-18T12:04:28.282Z,12.60
2023-04-18T12:05:32.466Z,12.60
2023-04-18T12:06:48.348Z,12.60
2023-04-18T12:07:51.325Z,12.60
2023-04-18T12:08:58.881Z,12.50
2023-04-18T12:10:02.090Z,12.60
2023-04-18T12:11:05.363Z,12.50
2023-04-18T12:12:07.393Z,12.50
2023-04-18T12:13:10.370Z,12.50
2023-04-18T12:14:21.648Z,12.60
2023-04-18T12:15:27.216Z,12.60
2023-04-18T12:16:30.700Z,12.60
2023-04-18T12:17:33.792Z,12.60
2023-04-18T12:18:36.789Z,12.70
2023-04-18T12:19:40.169Z,12.70
2023-04-18T12:20:50.118Z,12.70
2023-04-18T12:22:00.339Z,12.90
2023-04-18T12:23:04.477Z,12.90
2023-04-18T12:24:15.417Z,13.00
2023-04-18T12:25:26.170Z,13.00
2023-04-18T12:26:30.190Z,13.00
2023-04-18T12:27:51.768Z,13.10
2023-04-18T12:28:54.693Z,13.10
2023-04-18T12:29:56.641Z,13.20
2023-04-18T12:30:59.870Z,13.30
2023-04-18T12:32:02.287Z,13.20
2023-04-18T12:33:06.637Z,13.20
2023-04-18T12:34:08.762Z,13.20
2023-04-18T12:35:11.709Z,13.20
2023-04-18T12:36:14.698Z,13.10
2023-04-18T12:37:18.050Z,13.10
2023-04-18T12:38:22.427Z,13.10
2023-04-18T12:39:25.904Z,13.00
2023-04-18T12:40:31.463Z,13.00
2023-04-18T12:41:33.475Z,12.90
2023-04-18T12:42:36.387Z,12.90
2023-04-18T12:43:39.346Z,12.90
2023-04-18T12:44:41.418Z,12.90
2023-04-18T12:45:44.477Z,12.80
2023-04-18T12:46:46.501Z,12.80
2023-04-18T12:47:50.472Z,12.80
2023-04-18T12:48:53.459Z,12.90
2023-04-18T12:49:55.572Z,12.80
2023-04-18T12:50:58.656Z,12.90
2023-04-18T12:52:00.689Z,12.80
2023-04-18T12:53:06.952Z,12.90
2023-04-18T12:54:08.934Z,12.90
2023-04-18T12:55:12.072Z,12.90
2023-04-18T12:56:15.032Z,12.90
2023-04-18T12:57:17.585Z,12.90
2023-04-18T12:58:20.849Z,12.80
2023-04-18T12:59:22.774Z,12.90
2023-04-18T13:00:27.776Z,12.90
2023-04-18T13:01:30.926Z,13.00
2023-04-18T13:02:35.283Z,13.00
2023-04-18T13:03:38.679Z,12.90
2023-04-18T13:04:41.164Z,13.00
2023-04-18T13:05:44.379Z,13.00
2023-04-18T13:06:46.349Z,12.90
2023-04-18T13:07:49.951Z,13.00
2023-04-18T13:08:55.504Z,13.00
2023-04-18T13:09:57.417Z,13.00
2023-04-18T13:11:00.314Z,13.00
2023-04-18T13:12:02.327Z,13.10
2023-04-18T13:13:05.454Z,13.10
2023-04-18T13:14:07.355Z,13.10
2023-04-18T13:15:11.273Z,13.10
2023-04-18T13:16:14.232Z,13.20
2023-04-18T13:17:16.203Z,13.20
2023-04-18T13:18:19.127Z,13.30
2023-04-18T13:19:21.133Z,13.20
2023-04-18T13:20:24.073Z,13.20
2023-04-18T13:21:26.681Z,13.10
2023-04-18T13:22:30.855Z,13.10
2023-04-18T13:23:32.785Z,13.00
2023-04-18T13:24:37.520Z,13.00
2023-04-18T13:25:40.548Z,13.00
2023-04-18T13:26:42.494Z,13.00
2023-04-18T13:27:45.981Z,13.00
2023-04-18T13:28:52.578Z,13.00
2023-04-18T13:29:55.100Z,13.00
2023-04-18T13:30:58.539Z,13.00
2023-04-18T13:32:00.527Z,13.20
2023-04-18T13:33:03.559Z,13.10
2023-04-18T13:34:05.511Z,13.20
2023-04-18T13:35:09.315Z,13.20
2023-04-18T13:36:11.293Z,13.20
2023-04-18T13:37:15.492Z,13.10
2023-04-18T13:38:19.272Z,13.10
2023-04-18T13:39:21.366Z,12.90
2023-04-18T13:40:25.697Z,13.10
2023-04-18T13:41:27.641Z,13.10
2023-04-18T13:42:30.640Z,13.10
2023-04-18T13:43:34.160Z,13.10
2023-04-18T13:44:38.061Z,13.10
2023-04-18T13:45:41.049Z,13.10
2023-04-18T13:46:43.479Z,13.10
2023-04-18T13:47:46.408Z,13.10
2023-04-18T13:48:48.434Z,13.10
2023-04-18T13:49:51.534Z,13.10
2023-04-18T13:50:55.075Z,13.00
2023-04-18T13:51:57.577Z,13.00
2023-04-18T13:53:00.580Z,13.00
2023-04-18T13:54:02.510Z,13.00
2023-04-18T13:55:06.056Z,13.00